Time;durP1;ratioP1;P1;durP2;ratioP2;P2;SDS_P1;SDS_P2;PMS_P1;PMS_P2;Temp;Humidity;BMP_temperature;BMP_pressure;BME280_temperature;BME280_humidity;BME280_pressure;Samples;Min_cycle;Max_cycle;Signal;HPM_P1;HPM_P2
2023/12/03 00:00:11;;;;;;;48.73;15.73;;;;;;;-2.77;100.00;99443.75;4220988;28;21779;-62
2023/12/03 00:02:38;;;;;;;51.93;17.57;;;;;;;-2.83;100.00;99444.94;4227263;28;20247;-65
2023/12/03 00:05:06;;;;;;;49.83;15.57;;;;;;;-2.81;100.00;99448.38;4223888;28;23466;-62
2023/12/03 00:07:33;;;;;;;46.80;16.10;;;;;;;-2.85;100.00;99438.88;4221497;28;21665;-63
2023/12/03 00:10:00;;;;;;;49.40;15.57;;;;;;;-2.90;100.00;99447.06;4222172;28;20236;-63
2023/12/03 00:12:28;;;;;;;48.90;16.33;;;;;;;-2.92;100.00;99427.78;4223677;28;21246;-62
2023/12/03 00:14:55;;;;;;;52.87;16.40;;;;;;;-2.72;100.00;99442.53;4219776;28;20247;-63
2023/12/03 00:17:21;;;;;;;50.13;15.90;;;;;;;-2.81;100.00;99456.31;4222486;28;25660;-66
2023/12/03 00:19:49;;;;;;;49.83;16.27;;;;;;;-2.82;100.00;99453.72;4224447;28;20454;-61
2023/12/03 00:22:16;;;;;;;52.10;15.93;;;;;;;-2.77;100.00;99462.28;4227003;28;20229;-64
2023/12/03 00:24:42;;;;;;;54.63;18.43;;;;;;;-2.89;100.00;99455.88;4228505;28;20232;-65
2023/12/03 00:27:09;;;;;;;47.27;16.13;;;;;;;-2.87;100.00;99457.50;4221694;28;20247;-64
2023/12/03 00:29:36;;;;;;;56.30;16.13;;;;;;;-2.86;100.00;99463.66;4219786;28;20240;-66
2023/12/03 00:32:02;;;;;;;57.70;17.97;;;;;;;-2.80;100.00;99465.09;4231524;28;20239;-62
2023/12/03 00:34:29;;;;;;;51.23;16.03;;;;;;;-2.76;100.00;99464.00;4225952;28;22997;-61
2023/12/03 00:36:56;;;;;;;54.33;17.53;;;;;;;-2.73;100.00;99463.81;4228235;28;20303;-63
2023/12/03 00:39:24;;;;;;;47.50;16.40;;;;;;;-2.82;100.00;99465.19;4228003;28;20228;-63
2023/12/03 00:41:51;;;;;;;53.33;17.40;;;;;;;-2.94;100.00;99463.22;4225395;28;20258;-66
2023/12/03 00:44:18;;;;;;;52.93;16.93;;;;;;;-2.95;100.00;99474.78;4224934;28;20239;-64
2023/12/03 00:46:45;;;;;;;56.97;17.23;;;;;;;-2.90;100.00;99486.78;4220606;28;20324;-64
2023/12/03 00:49:12;;;;;;;48.87;15.93;;;;;;;-2.77;100.00;99479.03;4228305;28;21623;-62
2023/12/03 00:51:38;;;;;;;50.63;17.37;;;;;;;-2.77;100.00;99484.31;4219159;28;20307;-63
2023/12/03 00:54:05;;;;;;;51.30;16.37;;;;;;;-2.88;100.00;99481.44;4222760;28;20298;-65
2023/12/03 00:56:32;;;;;;;48.20;16.07;;;;;;;-2.80;100.00;99488.94;4223329;28;20294;-63
2023/12/03 00:58:59;;;;;;;51.83;16.83;;;;;;;-2.72;100.00;99490.22;4232776;28;20245;-63
2023/12/03 01:01:25;;;;;;;56.70;17.50;;;;;;;-2.78;100.00;99492.38;4231497;28;20231;-63
2023/12/03 01:03:52;;;;;;;42.17;15.37;;;;;;;-2.80;100.00;99494.25;4916137;23;20246;-63
2023/12/03 01:06:19;;;;;;;39.77;13.93;;;;;;;-2.80;100.00;99505.72;4989940;28;20254;-61
2023/12/03 01:08:46;;;;;;;50.33;16.17;;;;;;;-2.86;100.00;99524.56;4988101;28;20309;-63
2023/12/03 01:11:13;;;;;;;48.73;15.53;;;;;;;-2.95;100.00;99514.50;4951681;23;20656;-62
2023/12/03 01:13:40;;;;;;;42.60;14.23;;;;;;;-2.84;100.00;99527.16;4965814;28;20266;-59
2023/12/03 01:16:14;;;;;;;51.53;15.63;;;;;;;-2.73;100.00;99532.69;4970047;28;20227;-61
2023/12/03 01:18:41;;;;;;;45.27;14.53;;;;;;;-2.60;100.00;99532.88;4969029;28;20318;-60
2023/12/03 01:21:08;;;;;;;45.73;14.57;;;;;;;-2.74;100.00;99536.28;4969581;28;20310;-63
2023/12/03 01:23:34;;;;;;;42.57;14.70;;;;;;;-2.78;100.00;99540.88;4971096;28;20658;-61
2023/12/03 01:26:01;;;;;;;46.87;14.83;;;;;;;-2.99;100.00;99521.75;4987053;28;20358;-62
2023/12/03 01:28:28;;;;;;;43.03;14.67;;;;;;;-2.86;100.00;99535.16;4971929;28;20231;-62
2023/12/03 01:30:54;;;;;;;40.03;13.57;;;;;;;-2.83;100.00;99537.66;4957312;28;20242;-63
2023/12/03 01:33:21;;;;;;;39.80;13.90;;;;;;;-2.73;100.00;99541.50;4972475;28;20319;-60
2023/12/03 01:35:49;;;;;;;43.90;13.90;;;;;;;-2.74;100.00;99530.97;4972110;28;20338;-64
2023/12/03 01:38:16;;;;;;;38.00;13.47;;;;;;;-2.71;100.00;99541.41;4970800;28;20344;-62
2023/12/03 01:40:51;;;;;;;42.67;14.40;;;;;;;-2.54;100.00;99537.81;4970594;28;20235;-61
2023/12/03 01:43:18;;;;;;;40.53;14.73;;;;;;;-2.74;100.00;99546.88;4972121;28;21800;-62
2023/12/03 01:45:45;;;;;;;43.77;14.13;;;;;;;-2.64;100.00;99541.94;4971146;28;20272;-61
2023/12/03 01:48:13;;;;;;;50.00;14.33;;;;;;;-2.68;100.00;99543.03;4970097;28;20227;-63
2023/12/03 01:50:41;;;;;;;45.00;15.63;;;;;;;-2.63;100.00;99536.53;4970215;28;20231;-61
2023/12/03 01:53:08;;;;;;;43.07;13.87;;;;;;;-2.65;100.00;99543.72;4971079;28;20228;-61
2023/12/03 01:55:35;;;;;;;35.73;13.20;;;;;;;-2.74;100.00;99542.44;4968721;28;20255;-62
2023/12/03 01:58:02;;;;;;;39.83;14.47;;;;;;;-2.71;100.00;99542.25;4968450;28;20336;-62
2023/12/03 02:00:28;;;;;;;40.20;13.37;;;;;;;-2.78;100.00;99543.53;4967581;28;20559;-62
2023/12/03 02:02:55;;;;;;;42.03;15.13;;;;;;;-2.56;100.00;99553.81;4968559;28;20273;-63
2023/12/03 02:05:22;;;;;;;40.97;13.80;;;;;;;-2.63;100.00;99548.91;4969233;28;20232;-62
2023/12/03 02:07:49;;;;;;;44.77;14.90;;;;;;;-2.67;100.00;99548.25;4972597;28;20228;-62
2023/12/03 02:10:16;;;;;;;50.87;16.07;;;;;;;-2.66;100.00;99551.75;4965137;28;20720;-63
2023/12/03 02:12:43;;;;;;;46.83;16.20;;;;;;;-2.64;100.00;99552.53;4963398;28;20251;-64
2023/12/03 02:15:09;;;;;;;45.53;15.43;;;;;;;-2.65;100.00;99553.47;4966809;28;20223;-61
2023/12/03 02:17:36;;;;;;;45.77;16.30;;;;;;;-2.66;100.00;99563.19;4968499;28;20228;-61
2023/12/03 02:20:04;;;;;;;45.97;16.70;;;;;;;-2.73;100.00;99568.00;4964599;28;20235;-60
2023/12/03 02:22:31;;;;;;;48.20;16.60;;;;;;;-2.71;100.00;99570.56;4965357;28;20235;-64
2023/12/03 02:24:57;;;;;;;49.50;16.03;;;;;;;-2.87;100.00;99573.19;4968199;28;20240;-60
2023/12/03 02:27:24;;;;;;;50.47;16.80;;;;;;;-2.78;100.00;99574.47;4963975;28;20379;-62
2023/12/03 02:29:51;;;;;;;46.50;16.70;;;;;;;-2.73;100.00;99585.66;4967302;28;20236;-61
2023/12/03 02:32:17;;;;;;;55.23;17.57;;;;;;;-2.86;100.00;99582.81;4964485;28;20247;-61
2023/12/03 02:34:44;;;;;;;49.03;17.27;;;;;;;-2.81;100.00;99590.53;4983162;28;20282;-63
2023/12/03 02:37:11;;;;;;;48.23;17.07;;;;;;;-2.60;100.00;99593.81;4964551;28;20487;-61
2023/12/03 02:39:37;;;;;;;51.50;18.60;;;;;;;-2.81;100.00;99599.34;4961702;28;20236;-62
2023/12/03 02:42:04;;;;;;;53.43;18.20;;;;;;;-2.74;100.00;99600.72;4965765;28;20242;-62
2023/12/03 02:44:30;;;;;;;53.90;19.10;;;;;;;-2.69;100.00;99610.19;4963524;28;20255;-62
2023/12/03 02:46:57;;;;;;;53.60;19.30;;;;;;;-2.68;100.00;99609.25;4964334;28;20305;-62
2023/12/03 02:49:24;;;;;;;59.30;20.17;;;;;;;-2.74;100.00;99616.63;4964073;28;20312;-59
2023/12/03 02:51:50;;;;;;;57.80;19.93;;;;;;;-2.63;100.00;99621.34;4964920;28;22544;-62
2023/12/03 02:54:17;;;;;;;60.60;19.57;;;;;;;-2.60;100.00;99617.66;4965461;28;20347;-62
2023/12/03 02:56:45;;;;;;;58.70;21.20;;;;;;;-2.45;100.00;99621.25;4965419;28;20270;-62
2023/12/03 02:59:12;;;;;;;61.90;20.97;;;;;;;-2.86;100.00;99625.22;4964992;28;20227;-61
2023/12/03 03:01:38;;;;;;;60.47;21.03;;;;;;;-2.78;100.00;99632.75;4965613;28;21238;-62
2023/12/03 03:04:05;;;;;;;62.73;20.93;;;;;;;-2.79;100.00;99636.34;4965429;28;20224;-61
2023/12/03 03:06:32;;;;;;;61.07;21.33;;;;;;;-2.78;100.00;99644.19;4965934;28;20239;-61
2023/12/03 03:08:59;;;;;;;59.87;20.93;;;;;;;-2.74;100.00;99642.22;4966226;28;20228;-62
2023/12/03 03:11:25;;;;;;;60.60;20.77;;;;;;;-2.71;100.00;99650.03;4961634;28;20266;-62
2023/12/03 03:13:52;;;;;;;61.57;20.53;;;;;;;-2.62;100.00;99657.50;4966877;28;21018;-61
2023/12/03 03:16:21;;;;;;;62.33;21.03;;;;;;;-2.77;100.00;99661.81;4960878;28;20607;-61
2023/12/03 03:18:49;;;;;;;57.90;21.93;;;;;;;-2.71;100.00;99676.53;4964402;28;20326;-61
2023/12/03 03:21:16;;;;;;;52.53;20.37;;;;;;;-2.69;100.00;99677.31;4965551;28;20311;-63
2023/12/03 03:23:42;;;;;;;56.43;19.37;;;;;;;-2.78;100.00;99677.78;4963183;28;20339;-63
2023/12/03 03:26:09;;;;;;;54.63;20.73;;;;;;;-2.95;100.00;99676.03;4964837;28;20792;-61
2023/12/03 03:28:36;;;;;;;60.87;20.37;;;;;;;-2.93;100.00;99680.31;4965863;28;20231;-61
2023/12/03 03:31:02;;;;;;;52.40;18.90;;;;;;;-3.01;100.00;99687.78;4964770;28;20239;-62
2023/12/03 03:33:29;;;;;;;52.97;20.03;;;;;;;-3.13;100.00;99691.94;4964489;28;20305;-64
2023/12/03 03:35:56;;;;;;;52.00;19.80;;;;;;;-3.03;100.00;99687.00;4965826;28;20231;-63
2023/12/03 03:38:22;;;;;;;57.77;21.43;;;;;;;-3.23;100.00;99688.91;4965057;28;20314;-63
2023/12/03 03:40:50;;;;;;;62.30;19.70;;;;;;;-3.14;100.00;99692.84;4965237;28;21517;-62
2023/12/03 03:43:16;;;;;;;62.13;20.90;;;;;;;-3.16;100.00;99691.22;4964217;28;20232;-61
2023/12/03 03:45:43;;;;;;;61.53;20.77;;;;;;;-3.17;100.00;99694.81;4964887;28;20286;-61
2023/12/03 03:48:10;;;;;;;62.17;20.87;;;;;;;-3.17;100.00;99692.16;4965375;28;20235;-62
2023/12/03 03:50:37;;;;;;;52.43;17.67;;;;;;;-3.14;100.00;99694.66;4963627;28;20282;-60
2023/12/03 03:53:03;;;;;;;61.77;20.30;;;;;;;-3.11;100.00;99695.38;4965936;28;20305;-61
2023/12/03 03:55:30;;;;;;;59.90;20.43;;;;;;;-3.22;100.00;99687.09;4963290;28;20321;-61
2023/12/03 03:57:56;;;;;;;55.00;19.90;;;;;;;-3.24;100.00;99694.25;4965996;28;20313;-62
2023/12/03 04:00:24;;;;;;;57.40;18.20;;;;;;;-3.17;100.00;99700.09;4963435;28;20232;-61
2023/12/03 04:02:51;;;;;;;58.33;18.73;;;;;;;-3.14;100.00;99705.25;4963712;28;20257;-61
2023/12/03 04:05:18;;;;;;;54.97;20.33;;;;;;;-3.06;100.00;99701.28;4961672;28;20306;-62
2023/12/03 04:07:45;;;;;;;55.63;20.03;;;;;;;-2.95;100.00;99708.66;4965688;28;20223;-62
2023/12/03 04:10:11;;;;;;;53.60;19.50;;;;;;;-2.95;100.00;99699.88;4963110;28;20451;-61
2023/12/03 04:12:38;;;;;;;58.70;19.97;;;;;;;-2.89;100.00;99705.69;4963796;28;20401;-63
2023/12/03 04:15:05;;;;;;;56.63;19.10;;;;;;;-3.04;100.00;99707.34;4966640;28;20502;-63
2023/12/03 04:17:32;;;;;;;55.20;19.20;;;;;;;-3.11;100.00;99705.06;4968606;28;20402;-63
2023/12/03 04:19:59;;;;;;;51.70;18.13;;;;;;;-3.09;100.00;99713.81;4803513;28;20316;-63
2023/12/03 04:22:26;;;;;;;56.10;19.73;;;;;;;-3.16;100.00;99712.41;4183565;28;22820;-64
2023/12/03 04:24:52;;;;;;;53.63;17.77;;;;;;;-3.25;100.00;99722.53;4185278;28;20284;-63
2023/12/03 04:27:19;;;;;;;52.93;18.10;;;;;;;-3.29;100.00;99723.63;4181918;28;20237;-60
2023/12/03 04:29:46;;;;;;;57.90;19.40;;;;;;;-3.27;100.00;99724.38;4180427;28;20260;-63
2023/12/03 04:32:12;;;;;;;58.97;19.70;;;;;;;-3.24;100.00;99728.66;4179392;28;20242;-64
2023/12/03 04:34:40;;;;;;;59.60;19.70;;;;;;;-3.34;100.00;99728.28;4187295;28;20245;-61
2023/12/03 04:37:07;;;;;;;58.10;19.13;;;;;;;-3.21;100.00;99729.38;4180787;28;20345;-62
2023/12/03 04:39:34;;;;;;;50.87;19.17;;;;;;;-3.17;100.00;99724.78;4180594;28;22261;-61
2023/12/03 04:42:01;;;;;;;61.33;19.30;;;;;;;-3.16;100.00;99733.59;4179724;28;20233;-62
2023/12/03 04:44:31;;;;;;;52.80;18.37;;;;;;;-2.99;100.00;99724.78;4175466;28;20261;-61
2023/12/03 04:46:57;;;;;;;52.63;18.13;;;;;;;-3.00;100.00;99731.88;4183871;28;22632;-61
2023/12/03 04:49:25;;;;;;;58.13;18.77;;;;;;;-2.93;100.00;99738.56;4178580;28;20234;-61
2023/12/03 04:51:51;;;;;;;59.47;19.13;;;;;;;-3.00;100.00;99747.78;4182551;28;20234;-63
2023/12/03 04:54:18;;;;;;;58.57;19.13;;;;;;;-2.94;100.00;99757.16;4186087;28;21558;-61
2023/12/03 04:56:45;;;;;;;62.20;19.40;;;;;;;-3.12;100.00;99745.72;4179228;28;21190;-62
2023/12/03 04:59:11;;;;;;;58.63;18.53;;;;;;;-3.23;100.00;99755.06;4179736;28;20233;-62
2023/12/03 05:01:38;;;;;;;58.87;17.97;;;;;;;-3.00;100.00;99757.47;4179382;28;20772;-59
2023/12/03 05:04:05;;;;;;;55.67;18.97;;;;;;;-2.99;100.00;99769.78;4180356;28;20249;-64
2023/12/03 05:06:32;;;;;;;63.20;20.03;;;;;;;-3.08;100.00;99764.03;4178794;28;20237;-62
2023/12/03 05:08:58;;;;;;;60.63;18.63;;;;;;;-3.13;100.00;99776.66;4179212;28;20341;-62
2023/12/03 05:11:25;;;;;;;59.63;20.13;;;;;;;-3.09;100.00;99774.69;4183838;28;21646;-61
2023/12/03 05:13:51;;;;;;;71.37;21.70;;;;;;;-3.16;100.00;99783.88;4187524;28;20620;-64
2023/12/03 05:16:18;;;;;;;56.60;19.50;;;;;;;-3.10;100.00;99778.28;4181017;28;20275;-64
2023/12/03 05:18:45;;;;;;;64.40;20.93;;;;;;;-3.11;100.00;99785.38;4180445;28;20233;-63
2023/12/03 05:21:12;;;;;;;66.13;22.70;;;;;;;-3.05;100.00;99790.38;4182390;28;20328;-60
2023/12/03 05:23:39;;;;;;;57.60;20.73;;;;;;;-3.16;100.00;99787.38;4181172;28;20234;-62
2023/12/03 05:26:05;;;;;;;71.53;20.47;;;;;;;-3.24;100.00;99789.53;4192104;28;20316;-61
2023/12/03 05:28:32;;;;;;;73.80;20.67;;;;;;;-3.03;100.00;99799.09;4181547;28;20879;-64
2023/12/03 05:30:59;;;;;;;65.57;20.57;;;;;;;-2.98;100.00;99804.13;4183666;28;20427;-64
2023/12/03 05:33:25;;;;;;;63.40;20.20;;;;;;;-2.99;100.00;99798.94;4187752;28;21733;-62
2023/12/03 05:35:52;;;;;;;64.37;19.67;;;;;;;-2.94;100.00;99808.34;4183830;28;20239;-63
2023/12/03 05:38:19;;;;;;;72.13;21.10;;;;;;;-3.05;100.00;99803.59;4184712;28;20711;-63
2023/12/03 05:40:46;;;;;;;70.07;21.13;;;;;;;-2.93;100.00;99809.19;4184692;28;20302;-60
2023/12/03 05:43:14;;;;;;;74.20;21.90;;;;;;;-3.09;100.00;99812.63;4181802;28;20300;-64
2023/12/03 05:45:41;;;;;;;70.93;21.13;;;;;;;-3.15;100.00;99814.72;4183226;28;20224;-63
2023/12/03 05:48:08;;;;;;;78.40;22.70;;;;;;;-3.25;100.00;99824.91;4184891;28;20233;-61
2023/12/03 05:50:35;;;;;;;82.10;23.13;;;;;;;-3.29;100.00;99825.97;4184564;28;23035;-63
2023/12/03 05:53:01;;;;;;;79.67;22.83;;;;;;;-3.33;100.00;99830.56;4183561;28;23086;-62
2023/12/03 05:55:28;;;;;;;70.93;21.57;;;;;;;-3.27;100.00;99842.66;4183758;28;20292;-65
2023/12/03 05:57:55;;;;;;;75.27;23.20;;;;;;;-3.33;100.00;99845.59;4188637;28;22311;-66
2023/12/03 06:00:21;;;;;;;84.63;24.03;;;;;;;-3.40;100.00;99848.50;4182743;28;20240;-63
2023/12/03 06:02:49;;;;;;;83.00;25.67;;;;;;;-3.40;100.00;99852.97;4188668;28;20229;-63
2023/12/03 06:05:16;;;;;;;94.50;24.03;;;;;;;-3.35;100.00;99848.28;4183644;28;22050;-63
2023/12/03 06:07:42;;;;;;;88.10;25.13;;;;;;;-3.33;100.00;99856.19;4185625;28;20327;-61
2023/12/03 06:10:09;;;;;;;90.90;24.43;;;;;;;-3.30;100.00;99848.97;4182287;28;20569;-63
2023/12/03 06:12:36;;;;;;;87.67;23.90;;;;;;;-3.26;100.00;99847.03;4184285;28;20241;-62
2023/12/03 06:15:03;;;;;;;84.90;25.13;;;;;;;-3.16;100.00;99863.31;4187040;28;20630;-64
2023/12/03 06:17:30;;;;;;;91.70;26.63;;;;;;;-3.25;100.00;99862.81;4180947;28;20233;-62
2023/12/03 06:19:56;;;;;;;77.67;23.07;;;;;;;-3.23;100.00;99868.91;4186467;28;20238;-65
2023/12/03 06:22:24;;;;;;;80.30;24.87;;;;;;;-3.24;100.00;99867.19;4189452;28;21132;-64
2023/12/03 06:24:51;;;;;;;78.20;23.03;;;;;;;-3.15;100.00;99876.47;4182402;28;25831;-62
2023/12/03 06:27:18;;;;;;;89.70;25.77;;;;;;;-3.15;100.00;99880.91;4184950;28;20247;-66
2023/12/03 06:29:44;;;;;;;98.80;25.73;;;;;;;-3.22;100.00;99878.56;4186058;28;20277;-63
2023/12/03 06:32:12;;;;;;;86.33;24.83;;;;;;;-3.22;100.00;99880.34;4178913;28;20632;-59
2023/12/03 06:34:38;;;;;;;81.87;23.07;;;;;;;-3.06;100.00;99886.63;4199162;28;20285;-62
2023/12/03 06:37:06;;;;;;;90.23;23.93;;;;;;;-3.12;100.00;99881.63;4190903;28;20294;-64
2023/12/03 06:39:33;;;;;;;80.70;23.37;;;;;;;-3.04;100.00;99886.53;4178868;28;20241;-63
2023/12/03 06:41:59;;;;;;;81.27;22.50;;;;;;;-3.03;100.00;99886.47;4183577;28;21166;-62
2023/12/03 06:44:26;;;;;;;93.67;23.13;;;;;;;-3.02;100.00;99888.16;4188508;28;20260;-62
2023/12/03 06:47:07;;;;;;;94.30;23.27;;;;;;;-3.08;100.00;99887.63;4190603;28;22611;-63
2023/12/03 06:49:35;;;;;;;85.23;23.47;;;;;;;-3.09;100.00;99892.03;4189048;28;20350;-62
2023/12/03 06:52:02;;;;;;;89.00;24.10;;;;;;;-2.98;100.00;99898.63;4191055;28;22902;-64
2023/12/03 06:54:29;;;;;;;92.00;25.27;;;;;;;-3.01;100.00;99904.94;4184131;28;22882;-64
2023/12/03 06:56:56;;;;;;;98.43;25.87;;;;;;;-3.07;100.00;99895.47;4184925;28;20228;-62
2023/12/03 06:59:22;;;;;;;99.83;26.30;;;;;;;-3.08;100.00;99904.34;4185628;28;20295;-63
2023/12/03 07:01:50;;;;;;;110.10;27.67;;;;;;;-3.09;100.00;99917.69;4192222;28;21389;-65
2023/12/03 07:04:17;;;;;;;98.23;27.33;;;;;;;-3.08;100.00;99916.75;4194970;28;20289;-64
2023/12/03 07:06:44;;;;;;;102.60;28.37;;;;;;;-3.13;100.00;99911.66;4187437;28;21667;-62
2023/12/03 07:09:11;;;;;;;117.73;27.83;;;;;;;-3.11;100.00;99917.75;4183558;28;22516;-64
2023/12/03 07:11:58;;;;;;;96.40;25.73;;;;;;;-3.11;100.00;99920.41;4182154;28;20238;-66
2023/12/03 07:14:25;;;;;;;91.57;25.10;;;;;;;-3.09;100.00;99923.81;4193919;28;21722;-63
2023/12/03 07:16:51;;;;;;;93.43;24.70;;;;;;;-3.00;100.00;99924.31;4192002;28;20237;-62
2023/12/03 07:19:18;;;;;;;90.63;23.90;;;;;;;-3.07;100.00;99921.13;4183694;28;20264;-62
2023/12/03 07:21:45;;;;;;;104.00;26.93;;;;;;;-3.07;100.00;99923.78;4187780;28;20276;-62
2023/12/03 07:24:12;;;;;;;90.17;25.83;;;;;;;-3.02;100.00;99919.09;4186565;28;20246;-62
2023/12/03 07:26:42;;;;;;;89.80;26.10;;;;;;;-2.98;100.00;99930.41;4185280;28;20233;-64
2023/12/03 07:29:10;;;;;;;92.43;25.23;;;;;;;-2.99;100.00;99933.97;4179512;28;20229;-61
2023/12/03 07:31:36;;;;;;;97.30;26.53;;;;;;;-3.07;100.00;99937.00;4181743;28;21712;-63
2023/12/03 07:34:03;;;;;;;87.93;25.57;;;;;;;-3.00;100.00;99930.50;4193318;28;20233;-63
2023/12/03 07:36:30;;;;;;;88.30;24.13;;;;;;;-3.04;100.00;99944.78;4183777;28;20300;-64
2023/12/03 07:38:58;;;;;;;86.57;24.17;;;;;;;-2.93;100.00;99933.69;4189328;28;20225;-63
2023/12/03 07:41:24;;;;;;;89.27;24.80;;;;;;;-2.93;100.00;99934.56;4182567;28;21735;-63
2023/12/03 07:43:51;;;;;;;83.70;23.23;;;;;;;-2.89;100.00;99930.81;4179836;28;20607;-65
2023/12/03 07:46:18;;;;;;;72.00;22.57;;;;;;;-2.98;100.00;99944.50;4185988;28;20583;-64
2023/12/03 07:48:46;;;;;;;72.60;21.00;;;;;;;-2.98;100.00;99943.66;4185267;28;20297;-62
2023/12/03 07:51:12;;;;;;;82.53;23.53;;;;;;;-2.96;100.00;99941.78;4180250;28;21666;-66
2023/12/03 07:53:40;;;;;;;84.97;23.83;;;;;;;-2.82;100.00;99941.09;4187617;28;20240;-62
2023/12/03 07:56:08;;;;;;;79.87;22.33;;;;;;;-2.83;100.00;99944.72;4187125;28;20289;-61
2023/12/03 07:58:35;;;;;;;81.33;24.00;;;;;;;-2.93;100.00;99941.63;4166949;28;20237;-64
2023/12/03 08:01:05;;;;;;;87.93;24.60;;;;;;;-2.89;100.00;99944.06;4180955;28;20257;-64
2023/12/03 08:03:32;;;;;;;95.80;25.37;;;;;;;-2.81;100.00;99954.28;4194736;28;20419;-64
2023/12/03 08:05:59;;;;;;;89.07;24.20;;;;;;;-2.69;100.00;99952.84;4183412;28;20525;-65
2023/12/03 08:08:25;;;;;;;83.97;23.70;;;;;;;-2.67;100.00;99950.97;4175741;28;20306;-63
2023/12/03 08:10:52;;;;;;;97.43;26.17;;;;;;;-2.75;100.00;99954.00;4185924;28;20551;-64
2023/12/03 08:13:19;;;;;;;108.50;29.53;;;;;;;-2.56;100.00;99950.44;4185867;28;20229;-65
2023/12/03 08:15:45;;;;;;;94.67;26.03;;;;;;;-2.68;100.00;99961.63;4189649;28;20249;-63
2023/12/03 08:18:12;;;;;;;92.20;25.83;;;;;;;-2.61;100.00;99963.06;4183680;28;20236;-64
2023/12/03 08:20:39;;;;;;;94.20;27.67;;;;;;;-2.66;100.00;99960.63;4188837;28;20873;-65
2023/12/03 08:23:06;;;;;;;97.13;26.63;;;;;;;-2.58;100.00;99965.56;4175227;28;20245;-61
2023/12/03 08:25:33;;;;;;;84.17;25.53;;;;;;;-2.54;100.00;99967.13;4180553;28;21065;-62
2023/12/03 08:28:00;;;;;;;88.03;25.20;;;;;;;-2.61;100.00;99969.22;4184039;28;20307;-63
2023/12/03 08:30:26;;;;;;;92.80;27.10;;;;;;;-2.42;100.00;99976.25;4190550;28;20236;-66
2023/12/03 08:32:53;;;;;;;88.33;27.23;;;;;;;-2.52;100.00;99970.56;4182641;28;20436;-67
2023/12/03 08:35:20;;;;;;;80.07;26.20;;;;;;;-2.44;100.00;99972.81;4197509;28;20282;-65
2023/12/03 08:37:48;;;;;;;85.87;25.23;;;;;;;-2.37;100.00;99976.88;4189864;28;22075;-65
2023/12/03 08:40:15;;;;;;;89.73;26.17;;;;;;;-2.45;100.00;99976.41;4179807;28;20343;-65
2023/12/03 08:42:44;;;;;;;95.37;26.77;;;;;;;-2.48;100.00;99977.41;4172379;28;20236;-64
2023/12/03 08:45:11;;;;;;;97.63;28.27;;;;;;;-2.52;100.00;99981.16;4184016;28;20234;-64
2023/12/03 08:47:38;;;;;;;88.73;27.00;;;;;;;-2.49;100.00;99981.00;4182080;28;23118;-64
2023/12/03 08:50:05;;;;;;;81.60;25.00;;;;;;;-2.46;100.00;99990.59;4180172;28;20253;-66
2023/12/03 08:52:32;;;;;;;82.57;25.37;;;;;;;-2.40;100.00;100000.91;4183127;28;20233;-64
2023/12/03 08:55:00;;;;;;;75.53;25.57;;;;;;;-2.38;100.00;100004.34;4185584;28;23353;-64
2023/12/03 08:57:26;;;;;;;91.17;25.30;;;;;;;-2.51;100.00;99998.78;4166410;28;20779;-65
2023/12/03 08:59:54;;;;;;;74.90;23.20;;;;;;;-2.43;100.00;100003.69;4186073;28;22135;-66
2023/12/03 09:02:21;;;;;;;80.67;26.43;;;;;;;-2.17;100.00;100015.66;4176441;28;22645;-66
2023/12/03 09:04:50;;;;;;;73.40;22.80;;;;;;;-2.09;100.00;100010.84;4189904;28;20298;-65
2023/12/03 09:07:17;;;;;;;70.70;23.50;;;;;;;-2.11;100.00;100018.00;4187887;28;20228;-68
2023/12/03 09:09:44;;;;;;;65.17;23.47;;;;;;;-2.07;100.00;100019.59;4189094;28;20618;-67
2023/12/03 09:12:11;;;;;;;74.47;22.40;;;;;;;-2.15;100.00;100028.88;4188874;28;20249;-66
2023/12/03 09:14:38;;;;;;;74.13;23.27;;;;;;;-2.07;100.00;100034.63;4187086;28;20353;-66
2023/12/03 09:17:04;;;;;;;69.23;21.73;;;;;;;-1.89;100.00;100021.38;4182584;28;20381;-69
2023/12/03 09:19:31;;;;;;;76.17;24.07;;;;;;;-1.96;100.00;100020.81;4193114;28;20225;-65
2023/12/03 09:21:58;;;;;;;76.00;25.60;;;;;;;-2.15;100.00;100026.22;4184613;28;21176;-66
2023/12/03 09:24:24;;;;;;;77.97;24.37;;;;;;;-2.07;100.00;100031.97;4201928;28;20233;-68
2023/12/03 09:26:51;;;;;;;80.13;25.37;;;;;;;-2.05;100.00;100029.25;4193218;28;20249;-65
2023/12/03 09:29:19;;;;;;;86.80;26.93;;;;;;;-2.24;100.00;100020.44;4185373;28;21257;-68
2023/12/03 09:31:45;;;;;;;90.43;26.87;;;;;;;-2.01;100.00;100031.69;4187244;28;20699;-66
2023/12/03 09:34:12;;;;;;;99.80;34.55;;;;;;;-2.10;100.00;100035.63;4184922;28;20563;-64
2023/12/03 09:36:39;;;;;;;98.17;31.20;;;;;;;-2.15;100.00;100029.72;4193562;28;20237;-65
2023/12/03 09:39:06;;;;;;;91.73;27.53;;;;;;;-1.98;100.00;100033.31;4188200;28;20533;-66
2023/12/03 09:41:41;;;;;;;79.83;24.00;;;;;;;-1.96;100.00;100034.94;4186418;28;20233;-66
2023/12/03 09:44:18;;;;;;;72.40;22.67;;;;;;;-1.74;100.00;100019.75;4189140;28;20236;-67
2023/12/03 09:46:48;;;;;;;77.73;22.57;;;;;;;-1.72;100.00;100029.34;4187454;28;21857;-66
2023/12/03 09:49:18;;;;;;;91.97;24.67;;;;;;;-1.68;100.00;100022.06;4185895;28;20236;-66
2023/12/03 09:51:45;;;;;;;78.47;23.67;;;;;;;-1.67;100.00;100027.28;4187844;28;20903;-66
2023/12/03 09:54:12;;;;;;;78.80;23.50;;;;;;;-1.58;100.00;100036.56;4186053;28;20287;-67
2023/12/03 09:56:42;;;;;;;71.77;22.33;;;;;;;-1.54;100.00;100037.25;4203509;28;22971;-65
2023/12/03 09:59:10;;;;;;;79.20;21.17;;;;;;;-1.47;100.00;100036.00;4185372;28;20619;-67
2023/12/03 10:01:40;;;;;;;81.53;22.17;;;;;;;-1.63;100.00;100033.31;4199695;28;21150;-67
2023/12/03 10:04:07;;;;;;;76.50;24.00;;;;;;;-1.69;100.00;100034.47;4188682;28;20540;-65
2023/12/03 10:06:40;;;;;;;74.93;22.90;;;;;;;-1.56;100.00;100036.50;4185019;28;20260;-67
2023/12/03 10:09:08;;;;;;;82.00;22.97;;;;;;;-1.61;100.00;100040.25;4182205;28;20435;-66
2023/12/03 10:11:39;;;;;;;82.33;24.67;;;;;;;-1.76;100.00;100041.03;4183972;28;21757;-65
2023/12/03 10:14:09;;;;;;;88.17;23.63;;;;;;;-1.78;100.00;100048.22;4187346;28;22180;-66
2023/12/03 10:16:36;;;;;;;78.47;24.37;;;;;;;-1.50;100.00;100045.00;4187891;28;20241;-66
2023/12/03 10:19:06;;;;;;;82.50;23.83;;;;;;;-1.69;100.00;100042.44;4203190;28;20240;-64
2023/12/03 10:21:32;;;;;;;79.23;22.97;;;;;;;-1.48;100.00;100048.44;4183748;28;20253;-66
2023/12/03 10:24:03;;;;;;;81.63;23.57;;;;;;;-1.26;100.00;100052.59;4185095;28;20241;-65
2023/12/03 10:26:30;;;;;;;80.40;24.27;;;;;;;-1.24;100.00;100057.81;4191442;28;22735;-63
2023/12/03 10:28:57;;;;;;;73.90;23.33;;;;;;;-1.39;100.00;100052.38;4187566;28;20261;-64
2023/12/03 10:31:25;;;;;;;71.20;22.67;;;;;;;-1.14;100.00;100059.06;4178909;28;20229;-67
2023/12/03 10:33:52;;;;;;;69.00;22.37;;;;;;;-1.13;100.00;100060.78;4184156;28;21788;-66
2023/12/03 10:36:18;;;;;;;70.57;22.40;;;;;;;-1.12;100.00;100063.34;4187468;28;20284;-68
2023/12/03 10:38:45;;;;;;;73.73;23.40;;;;;;;-1.14;100.00;100059.94;4182850;28;20507;-69
2023/12/03 10:41:13;;;;;;;77.87;23.70;;;;;;;-1.27;100.00;100064.16;4182596;28;20275;-66
2023/12/03 10:43:41;;;;;;;74.93;24.10;;;;;;;-1.13;100.00;100063.44;4176188;28;20675;-67
2023/12/03 10:46:10;;;;;;;66.03;22.70;;;;;;;-1.17;100.00;100065.41;4190989;28;20249;-70
2023/12/03 10:48:41;;;;;;;66.97;21.70;;;;;;;-1.18;100.00;100070.81;4174032;28;20226;-69
2023/12/03 10:51:10;;;;;;;78.53;23.90;;;;;;;-1.40;100.00;100071.94;4190971;28;20461;-67
2023/12/03 10:53:38;;;;;;;74.63;23.87;;;;;;;-1.25;100.00;100070.25;4183552;28;20353;-65
2023/12/03 10:56:07;;;;;;;77.53;24.63;;;;;;;-1.19;100.00;100075.25;4183414;28;20241;-68
2023/12/03 10:58:38;;;;;;;73.20;24.53;;;;;;;-1.08;100.00;100079.13;4186687;28;21030;-77
2023/12/03 11:01:25;;;;;;;78.10;23.50;;;;;;;-1.10;100.00;100081.88;4193879;28;21970;-70
2023/12/03 11:03:59;;;;;;;86.47;26.07;;;;;;;-0.85;100.00;100081.41;4189261;28;20292;-68
2023/12/03 11:06:26;;;;;;;76.80;25.27;;;;;;;-1.01;100.00;100083.19;4199750;28;21915;-72